< Cyclone 201919 2019 Season Cyclone 201921 >
Cyclone 201920 (Trevor)
General InformationTrack Information on Google MapsDetailed Wind InformationList of All Images || ResourceGoogle EarthGE AnimationAtom FeedGeoJSON
Detalied Best Track (Time Zone = UTC)
Year Month Day Hour Lat. Long. Pressure (hPa) Wind (kt) Class Image Chart
2019 3 15 00 -8.3 151.0 998 30 2 Image --
2019 3 15 06 -8.5 150.8 1004 30 2 Image --
2019 3 15 12 -8.7 150.5 999 30 2 Image --
2019 3 15 18 -8.9 150.4 1004 30 2 Image --
2019 3 16 00 -9.2 150.1 998 30 2 Image --
2019 3 16 06 -9.6 149.3 999 25 2 Image --
2019 3 16 12 -9.8 148.0 1000 25 2 Image --
2019 3 16 18 -10.2 147.0 1000 25 2 Image --
2019 3 17 00 -10.8 146.9 1000 25 2 Image --
2019 3 17 06 -11.4 147.0 1000 25 2 Image --
2019 3 17 12 -12.1 146.6 999 30 2 Image --
2019 3 17 18 -12.2 146.1 995 35 3 Image --
2019 3 18 00 -12.3 145.6 994 45 3 Image --
2019 3 18 06 -12.4 145.3 990 50 4 Image --
2019 3 18 12 -12.6 145.0 985 55 4 Image --
2019 3 18 18 -12.8 144.6 975 65 5 Image --
2019 3 19 00 -12.9 144.1 964 80 5 Image --
2019 3 19 06 -12.9 143.6 967 85 5 Image --
2019 3 19 09 -12.9 143.5 967 85 5 Image --
2019 3 19 12 -12.8 143.3 969 70 5 Image --
2019 3 19 18 -13.1 142.6 989 50 4 Image --
2019 3 20 00 -13.0 142.1 998 35 3 Image --
2019 3 20 06 -12.9 141.9 998 35 3 Image --
2019 3 20 12 -12.8 141.8 991 35 3 Image --
2019 3 20 18 -12.9 141.4 989 35 3 Image --
2019 3 21 00 -12.8 141.4 989 35 3 Image --
2019 3 21 06 -13.2 141.4 988 50 4 Image --
2019 3 21 12 -13.5 141.1 982 60 4 Image --
2019 3 21 18 -14.0 140.3 981 60 4 Image --
2019 3 22 00 -14.2 139.6 973 70 5 Image --
2019 3 22 06 -14.5 139.3 972 70 5 Image --
2019 3 22 12 -14.9 138.9 962 80 5 Image --
2019 3 22 18 -15.4 138.2 950 95 5 Image --
2019 3 23 00 -15.8 137.6 955 90 5 Image --
2019 3 23 06 -16.5 136.7 976 65 5 Image --
2019 3 23 12 -17.3 135.9 985 45 3 Image --
2019 3 23 18 -18.3 135.2 998 30 2 Image --
2019 3 24 00 -18.9 135.0 1000 30 2 Image --
2019 3 24 06 -20.1 135.0 996 30 2 Image --
2019 3 24 12 -20.4 135.1 998 30 2 Image --
2019 3 24 18 -20.8 135.5 998 30 2 Image --
2019 3 25 00 -21.1 136.2 1002 25 2 Image --
2019 3 25 06 -21.1 137.0 1002 25 2 Image --
2019 3 25 12 -21.2 137.2 1003 25 2 Image --
2019 3 25 18 -20.9 137.5 1002 25 2 Image --
2019 3 26 00 -20.9 138.5 1004 25 2 Image --
2019 3 26 06 -20.9 139.0 1003 20 2 Image --
2019 3 26 12 -20.5 139.5 1008 20 2 Image --
2019 3 26 18 -20.4 140.0 1006 20 2 Image --
2019 3 27 00 -20.9 141.0 1008 20 2 Image --
2019 3 27 06 -20.9 142.5 1004 20 2 Image --
2019 3 27 12 -20.4 143.0 1007 20 2 Image --
2019 3 27 18 -20.6 143.0 1004 20 2 Image --
< Cyclone 201919 2019 Season Cyclone 201921 >

Help